0,00 -
Pkt Einheit
Index Typ
0,00% %
0,00 abs
ISIN: US78378X1072 WKN: A0AET0 Börse: Commerzbank CFD Datum: -

S&P 500 Index

Name Kurs +/- abs. +/- % Zeit 1 Woche % 1 Monat % 3 Monate % 6 Monate % 1 Jahr % 10 Jahre %
3M Co. 219,080 -0,420 -0,19 24.04.19 0,85 7,25 14,01 18,94 9,13 285,09
Abbott Laboratories 76,750 0,650 0,85 24.04.19 4,42 -2,40 7,39 13,68 30,51 278,26
AbbVie Inc. 78,670 0,010 0,01 24.04.19 0,87 -1,38 -8,41 -0,94 -13,90
Abiomed Inc. 270,830 8,480 3,23 24.04.19 4,32 -18,83 -24,72 -25,62 -9,82 4.339,09
Accenture PLC 180,810 0,330 0,18 24.04.19 0,85 9,20 20,20 17,87 19,47 516,60
Activision Blizzard Inc. 46,750 0,250 0,54 24.04.19 3,38 -0,79 -1,63 -30,86 -28,83 347,12
Adobe Inc. 275,510 -2,980 -1,07 24.04.19 3,33 7,25 14,81 16,73 27,81 954,09
Advance Auto Parts Inc. 171,860 -0,610 -0,35 24.04.19 -2,45 4,63 10,34 8,35 61,29 304,57
Advanced Micro Devices Inc. 28,460 0,490 1,75 24.04.19 1,71 6,07 34,15 22,73 177,21 696,87
AES Corp., The 17,730 -0,020 -0,11 24.04.19 0,28 -1,72 11,64 21,00 47,92 156,50
Affiliated Managers Group Inc. 113,170 -1,310 -1,14 24.04.19 1,86 15,45 6,25 -1,23 -32,24 132,49
AFLAC Inc. 48,890 -0,020 -0,04 24.04.19 -0,27 -1,11 3,34 14,54 8,28 241,79
Agilent Technologies Inc. 75,790 0,230 0,30 24.04.19 0,17 -4,34 4,68 23,61 13,39 521,06
Air Products & Chemicals Inc. 199,420 2,750 1,40 24.04.19 -0,55 5,57 25,67 32,07 19,92 214,17
Akamai Technologies Inc. 78,140 0,480 0,62 24.04.19 2,16 9,03 20,27 24,67 9,43 298,67
Alaska Air Group Inc. 60,800 -0,090 -0,15 24.04.19 -0,80 12,24 -7,43 -0,36 -6,70
Albemarle Corp. 76,800 -2,250 -2,85 24.04.19 -3,71 -4,44 6,80 -15,58 -17,47 190,63
Alexandria Real Est. Equ. Inc. 142,220 1,680 1,20 24.04.19 3,04 -0,83 14,03 14,04 15,52
Alexion Pharmaceuticals Inc. 130,090 -2,280 -1,72 24.04.19 5,13 1,73 12,26 19,26 24,28 674,32
Align Technology Inc. 297,080 1,090 0,37 24.04.19 8,15 9,78 34,13 1,82 23,50 2.342,16
Allegion PLC 95,500 -0,490 -0,51 24.04.19 2,23 10,06 15,65 20,38 16,85
Allergan PLC 139,660 -2,510 -1,77 24.04.19 1,53 -4,78 -9,77 -20,54 -9,39 201,98
Alliance Data Systems Corp. 164,800 1,780 1,09 24.04.19 -0,95 -0,94 -6,65 -18,05 -20,62 284,48
Alliant Energy Corp. 46,680 0,440 0,95 24.04.19 0,74 -2,75 5,28
Allstate Corp., The 96,410 -0,880 -0,90 24.04.19 -0,14 3,31 12,80 5,65 -0,10 336,08
Alphabet Inc. (Class A) 1.260,050 -10,540 -0,83 24.04.19 2,46 5,21 17,18 20,24 24,25 552,42
Alphabet Inc. (Class C) 1.256,000 -8,550 -0,68 24.04.19 2,27 4,86 17,75 20,40 23,98
Altria Group Inc. 54,710 -0,110 -0,20 24.04.19 -2,42 -1,97 26,52 -12,02 -0,87 224,00
Amazon.com Inc. 1.901,050 -22,720 -1,18 24.04.19 3,16 9,01 16,24 15,60 31,76 2.177,73
Ameren Corp. 72,000 0,850 1,19 24.04.19 0,76 -3,53 3,49 6,53 24,39 221,22
American Airlines Group Inc. 33,990 0,020 0,06 24.04.19 -1,19 11,12 0,92 12,00 -25,65 213,38
American Electric Power Co.Inc 84,020 0,450 0,54 24.04.19 0,44 -1,84 7,49 10,60 21,33 219,46
American Express Co. 114,020 0,050 0,04 24.04.19 1,98 4,12 14,29 11,91 13,47 350,47
American International Grp Inc 45,740 -0,240 -0,52 24.04.19 0,02 7,88 7,08 8,88 -16,54 57,47
American Tower Corp. 193,230 -0,170 -0,09 24.04.19 1,17 -0,13 16,75 27,26 41,21 489,81
American Water Works Co. Inc. 105,840 1,040 0,99 24.04.19 2,46 -1,85 10,74 14,31 23,63 482,22
Ameriprise Financial Inc. 144,000 -0,850 -0,59 24.04.19 1,12 16,69 20,93 18,16 1,54 447,84
AmerisourceBergen Corp. 74,090 0,660 0,90 24.04.19 1,56 -6,78 -6,70 -13,09 -18,54 324,70
AMETEK Inc. 87,100 -0,190 -0,22 24.04.19 1,80 9,92 22,60 33,51 21,54 497,27
Amgen Inc. 178,300 -1,460 -0,81 24.04.19 -1,49 -3,71 -10,55 -4,32 4,55 260,75
Amphenol Corp. 102,520 -2,860 -2,71 24.04.19 1,33 11,47 23,67 26,10 27,32 532,34
Anadarko Petroleum Corp. 71,400 7,410 11,58 24.04.19 -0,06 48,02 38,36 7,35 -3,18 45,23
Analog Devices Inc. 117,280 3,170 2,78 24.04.19 -0,24 6,25 20,43 46,63 30,19 439,27
Ansys Inc. 192,850 0,650 0,34 24.04.19 2,73 8,48 21,57 33,47 19,42 608,70
Anthem Inc. 251,000 0,360 0,14 24.04.19 6,09 -16,87 -5,63 -5,57 11,40 512,21
AON PLC 178,290 -0,090 -0,05 24.04.19 1,72 7,26 15,90 21,93 25,33 338,93
Apache Corp. 35,480 -0,950 -2,61 24.04.19 -1,11 4,62 14,42 -4,06 -10,36 -47,26
Apartment Inv. & Managem. Co. 49,220 0,460 0,94 24.04.19 0,91 -2,44 2,63 14,35 24,17 563,40
Apple Inc. 207,100 -0,380 -0,18 24.04.19 2,14 8,60 35,87 -3,54 27,34 1.071,85
Applied Materials Inc. 44,460 0,630 1,44 24.04.19 -0,14 9,96 15,89 37,79 -10,04 274,62
Aptiv PLC 88,950 -0,540 -0,60 24.04.19 -1,36 15,31 24,60 22,79 4,24
Archer Daniels Midland Co. 42,780 0,080 0,19 24.04.19 -0,79 0,19 -2,22 -10,56 -5,45 79,64
Arconic Inc. 21,100 0,420 2,03 24.04.19 3,82 10,47 12,39 4,08 -5,91
Arista Networks Inc. 325,230 4,170 1,30 24.04.19 -2,13 6,96 41,78 43,45 27,37
Assurant Inc. 92,850 -0,210 -0,23 24.04.19 -1,06 -1,59 -3,41 -3,38 -0,32 230,23
AT & T Inc. 30,790 -1,310 -4,08 24.04.19 0,47 3,32 4,90 5,73 -8,29 27,58
Atmos Energy Corp. 100,090 0,520 0,52 24.04.19 0,13 -3,15 3,00 2,50 16,74
Autodesk Inc. 176,310 1,030 0,59 24.04.19 4,28 13,66 28,83 40,31 41,72 790,65
Automatic Data Processing Inc. 163,500 -1,540 -0,93 24.04.19 1,34 7,30 22,48 19,90 41,88 453,63
AutoZone Inc. 1.042,600 -5,160 -0,49 24.04.19 -0,34 6,78 28,59 43,88 73,84 548,05
Avalonbay Communities Inc. 198,160 1,900 0,97 24.04.19 1,25 -1,67 6,12 11,09 21,22 219,59
Avery Dennison Corp. 110,800 -5,200 -4,48 24.04.19 2,08 6,43 20,86 30,44 10,06 289,78
Baker Hughes a GE Co. 25,610 -0,360 -1,39 24.04.19 0,74 -4,38 12,72 -5,18 -25,01
Ball Corp. 58,900 -0,600 -1,01 24.04.19 4,29 2,69 16,99 36,31 48,16 490,28
Bank of America Corp. 30,020 -0,050 -0,17 24.04.19 0,13 11,33 3,40 14,81 -0,40 230,44
Baxter International Inc. 76,280 -0,060 -0,08 24.04.19 2,62 -1,17 9,14 13,11 15,40 194,09
BB&T Corp. 49,840 0,300 0,61 24.04.19 -0,60 9,87 0,59 7,53 -8,29 111,53
Becton, Dickinson & Co. 232,500 4,460 1,96 24.04.19 0,96 -5,03 -5,27 0,30 -1,23 265,04
Berkshire Hathaway Inc. 210,570 -1,040 -0,49 24.04.19 0,59 5,51 5,27 5,91 7,53 263,59
Best Buy Co. Inc. 74,690 1,070 1,45 24.04.19 0,30 5,01 27,81 6,77 0,62 87,47
Biogen Inc. 224,400 -5,810 -2,52 24.04.19 1,33 6,23 -30,84 -23,79 -12,18 399,59
Bk of New York MellonCorp.,The 48,150 -0,320 -0,66 24.04.19 0,25 -4,02 -9,76 6,93 -12,49 80,32
Blackrock Inc. 480,170 6,140 1,30 24.04.19 1,40 13,58 16,60 25,19 -7,72 213,59
Block H. & R. Inc. 26,150 -0,160 -0,61 24.04.19 -1,13 9,03 2,37 3,06 -1,39 72,64
Boeing Co. 375,460 1,440 0,39 24.04.19 -0,93 3,27 4,40 5,46 13,66 865,96
Booking Holdings Inc. 1.867,280 -20,450 -1,08 24.04.19 2,61 9,65 5,13 7,68 -8,69 1.863,11
BorgWarner Inc. 43,550 -0,080 -0,18 24.04.19 0,30 20,39 8,78 21,91 -16,64 208,01
Boston Properties Inc. 135,940 1,150 0,85 24.04.19 2,28 2,49 11,33 16,66 13,80 170,45
Boston Scientific Corp. 35,440 -0,450 -1,25 24.04.19 2,81 -3,78 -3,60 0,59 25,93 327,77
Bristol-Myers Squibb Co. 44,620 -0,700 -1,54 24.04.19 -1,05 -5,92 -7,55 -7,19 -12,14 125,47
Broadcom Inc. 314,330 -1,310 -0,42 24.04.19 -1,53 7,86 19,76 44,32 38,20 1.203,22
Broadridge Financial Solutions 116,950 1,880 1,63 24.04.19 0,94 14,65 14,16 2,30 5,77
Brown-Forman Corp. Class B 53,130 0,270 0,51 24.04.19 -0,08 2,16 15,90 14,47 -2,76 248,97
C.H. Robinson Worldwide Inc. 91,420 0,690 0,76 24.04.19 1,41 7,12 4,84 5,15 -1,76 70,07
Cabot Oil & Gas Corp. 26,110 -0,080 -0,31 24.04.19 -3,14 0,89 2,79 23,65 12,60 269,00
Cadence Design Systems Inc. 67,680 0,980 1,47 24.04.19 4,27 8,00 45,19 47,86 66,38 1.325,21
Campbell Soup Co. 39,000 0,100 0,26 24.04.19 -0,59 1,73 12,04 1,30 -5,31 56,41
Capital One Financial Corp. 87,790 -0,400 -0,45 24.04.19 0,31 10,24 9,99 2,71 -9,47 363,67
Capri Holdings Ltd. 46,110 0,030 0,07 24.04.19 -5,30 5,45 12,20 -18,15 -31,92
Cardinal Health Inc. 46,580 0,500 1,09 24.04.19 2,67 -5,26 -5,03 -7,10 -26,11 36,17
Carmax Inc. 77,290 -0,050 -0,06 24.04.19 -0,10 25,49 30,11 13,58 26,13 497,68
Carnival Corp. 53,730 -0,020 -0,04 24.04.19 -1,45 -4,73 -2,31 -1,83 -17,99 89,06
Caterpillar Inc. 137,730 -4,300 -3,03 24.04.19 -0,50 9,45 7,01 26,43 -1,67 322,33
Cboe Global Markets Inc. 101,350 0,230 0,23 24.04.19 0,32 5,95 5,23
CBRE Group Inc. 51,750 0,260 0,50 24.04.19 2,14 6,72 16,86 33,57 9,81 622,16
CBS Corp. Class B 51,350 0,010 0,02 24.04.19 -2,27 13,94 4,82 -3,64 2,78 725,40
Celanese Corp. (Del.) 110,890 -1,280 -1,14 24.04.19 6,38 14,30 17,23 20,15 2,57
Celgene Corp. 93,100 -0,570 -0,61 24.04.19 -0,67 6,23 8,34 25,38 5,08 370,00
Centene Corp. 50,200 -0,110 -0,22 24.04.19 7,02 -11,95 -60,30 -61,16 -53,30
CenterPoint Energy Inc. 30,290 -0,330 -1,08 24.04.19 2,03 -0,33 1,66 9,71 20,74 196,99
Zum Index